Ragged Point, California
Current Conditions -  °F | °C
As of 3:53 PM on Saturday 20 Dec 2014 (Local Time) from KPRB Reporting Station
Broken Clouds Broken Clouds  
Wind Chill: 62°   Ceiling: 5000
Heat Index: 62°   Visibility: 10mi
Dew Point: 54°   Wind: 10mph
Humidity: 75%   Direction: 310°NW
Pressure: 30.18"   Gusts: NA
Location:  35.7047°N, 121.194°W
Report Text: KPRB 202353Z AUTO 31009KT 10SM BKN050 17/12 A3018 RMK AO2 SLP219 T01670122 10178 20144 53002 TSNO
Loading
Personal Weather Stations






























Interactive Weather Map New forecast layout! Learn more

10-Day Weather Forecast

Advertisements
Track Severe Weather on mobile